Time;durP1;ratioP1;P1;durP2;ratioP2;P2;SDS_P1;SDS_P2;PMS_P1;PMS_P2;Temp;Humidity;BMP_temperature;BMP_pressure;BME280_temperature;BME280_humidity;BME280_pressure;Samples;Min_cycle;Max_cycle;Signal;HPM_P1;HPM_P2
2022/02/01 00:01:56;;;;;;;1.50;1.40;;;;;;;2.78;100.00;98783.25;4972756;28;20195;-74
2022/02/01 00:04:34;;;;;;;0.82;0.80;;;;;;;2.71;100.00;98783.16;4964871;28;20034;-74
2022/02/01 00:33:19;;;;;;;0.50;0.50;;;;;;;2.90;97.87;98825.19;4969955;28;20499;-74
2022/02/01 00:35:51;;;;;;;0.65;0.65;;;;;;;2.92;96.70;98838.88;4969577;28;20032;-74
2022/02/01 00:38:21;;;;;;;1.08;1.08;;;;;;;3.02;97.33;98838.16;4972757;28;20479;-74
2022/02/01 00:40:54;;;;;;;1.58;1.48;;;;;;;3.04;97.23;98844.13;4972745;28;20026;-74
2022/02/01 00:43:19;;;;;;;0.60;0.60;;;;;;;2.97;96.88;98855.16;4972578;28;20534;-74
2022/02/01 00:45:44;;;;;;;0.65;0.65;;;;;;;2.99;97.53;98853.44;4975570;28;20097;-74
2022/02/01 00:48:10;;;;;;;0.68;0.68;;;;;;;3.04;97.78;98856.94;4976186;28;20396;-74
2022/02/01 00:50:35;;;;;;;0.60;0.60;;;;;;;2.96;97.59;98863.66;4976224;28;20027;-74
2022/02/01 00:53:00;;;;;;;0.47;0.47;;;;;;;2.83;99.12;98853.25;4976126;28;20113;-74
2022/02/01 00:55:26;;;;;;;1.05;1.05;;;;;;;2.75;99.54;98848.84;4976135;28;20444;-74
2022/02/01 00:57:51;;;;;;;0.70;0.70;;;;;;;2.70;99.16;98843.66;4975734;28;20438;-74
2022/02/01 05:17:04;;;;;;;3.83;1.50;;;;;;;2.29;88.62;99201.81;5156299;23;20108;-68
2022/02/01 05:22:11;;;;;;;1.00;1.00;;;;;;;2.43;87.14;99194.44;4937545;29;20038;-69
2022/02/01 05:24:38;;;;;;;34.13;1.70;;;;;;;2.26;86.62;99196.63;4937306;29;20027;-69
2022/02/01 05:27:08;;;;;;;0.65;0.65;;;;;;;2.29;82.76;99189.03;4936877;29;20074;-73
2022/02/01 05:29:33;;;;;;;0.73;0.73;;;;;;;2.21;85.40;99197.38;4975899;23;20040;-69
2022/02/01 05:32:03;;;;;;;0.93;0.93;;;;;;;2.24;82.84;99208.53;4957244;28;20033;-70
2022/02/01 05:34:29;;;;;;;0.73;0.70;;;;;;;2.11;83.94;99221.84;4967772;28;20040;-69
2022/02/01 05:36:54;;;;;;;3.03;1.90;;;;;;;2.15;83.50;99228.78;4975397;28;20640;-69
2022/02/01 05:39:23;;;;;;;1.20;1.20;;;;;;;2.15;83.26;99227.91;4975416;28;20042;-69
2022/02/01 05:41:53;;;;;;;1.13;1.13;;;;;;;2.12;80.88;99227.81;4975589;28;20150;-71
2022/02/01 05:44:19;;;;;;;1.10;1.00;;;;;;;2.12;81.23;99233.81;4975389;28;20054;-69
2022/02/01 05:46:44;;;;;;;1.25;1.17;;;;;;;2.11;80.21;99232.06;4975159;28;20496;-69
2022/02/01 05:49:10;;;;;;;1.95;1.85;;;;;;;2.13;80.28;99222.78;4975446;28;20030;-71
2022/02/01 05:51:35;;;;;;;0.95;0.95;;;;;;;2.12;82.85;99221.03;4975277;28;20395;-70
2022/02/01 05:54:02;;;;;;;1.58;1.50;;;;;;;2.18;82.46;99221.19;4975120;28;20064;-72
2022/02/01 05:56:27;;;;;;;1.15;1.15;;;;;;;2.23;82.65;99206.81;4975000;28;20033;-69
2022/02/01 05:58:53;;;;;;;0.90;0.90;;;;;;;2.26;83.79;99201.75;4974958;28;20532;-69
2022/02/01 06:01:18;;;;;;;1.02;1.02;;;;;;;2.34;84.78;99206.19;4975013;28;20554;-69
2022/02/01 06:03:44;;;;;;;2.20;2.08;;;;;;;2.20;85.13;99204.16;4966035;28;20054;-69
2022/02/01 06:06:10;;;;;;;0.80;0.80;;;;;;;2.25;85.50;99200.03;4975035;28;20045;-69
2022/02/01 06:08:35;;;;;;;0.70;0.70;;;;;;;2.25;83.73;99205.13;4974849;28;20467;-69
2022/02/01 06:11:01;;;;;;;0.98;0.98;;;;;;;2.19;84.06;99205.00;4974794;28;20022;-69
2022/02/01 06:13:27;;;;;;;0.68;0.68;;;;;;;2.20;84.57;99227.19;4974871;28;20110;-69
2022/02/01 06:15:52;;;;;;;10.80;1.60;;;;;;;2.26;84.12;99229.88;4974451;28;20034;-69
2022/02/01 06:18:18;;;;;;;2.55;1.25;;;;;;;2.30;83.71;99239.34;4974783;28;20023;-69
2022/02/01 06:20:44;;;;;;;0.93;0.93;;;;;;;2.40;84.43;99229.31;4974596;28;20034;-69
2022/02/01 06:23:14;;;;;;;0.80;0.77;;;;;;;2.31;83.97;99223.16;4974653;28;20023;-69
2022/02/01 06:25:49;;;;;;;;;;;;;;;2.34;84.62;99229.19;4975011;28;20073;-69
2022/02/01 06:28:19;;;;;;;0.70;0.70;;;;;;;2.49;84.02;99232.06;4974515;28;19914;-68
2022/02/01 06:30:46;;;;;;;0.63;0.63;;;;;;;2.41;84.27;99247.22;4974195;28;20057;-69
2022/02/01 06:33:12;;;;;;;0.68;0.68;;;;;;;2.47;84.55;99251.66;4969626;28;20034;-69
2022/02/01 06:35:37;;;;;;;0.63;0.63;;;;;;;2.47;84.35;99251.66;4970196;28;20031;-69
2022/02/01 06:38:02;;;;;;;0.63;0.63;;;;;;;2.34;85.13;99247.94;4974256;28;20543;-69
2022/02/01 06:40:28;;;;;;;0.80;0.80;;;;;;;2.41;84.65;99261.72;4974223;28;20049;-69
2022/02/01 06:42:54;;;;;;;1.88;1.77;;;;;;;2.47;84.92;99265.28;4974576;28;20030;-69
2022/02/01 06:45:20;;;;;;;0.60;0.60;;;;;;;2.50;84.61;99256.81;4974332;28;20019;-69
2022/02/01 06:47:47;;;;;;;1.23;1.13;;;;;;;2.36;83.32;99264.16;4974055;28;20373;-68
2022/02/01 06:50:13;;;;;;;0.50;0.50;;;;;;;2.37;83.02;99275.25;4973931;28;20117;-68
2022/02/01 06:52:38;;;;;;;1.08;1.05;;;;;;;2.36;83.08;99279.50;4972814;28;20058;-69
2022/02/01 06:55:04;;;;;;;0.60;0.60;;;;;;;2.25;83.22;99286.94;4974169;28;20030;-69
2022/02/01 06:57:39;;;;;;;0.52;0.52;;;;;;;2.31;82.10;99299.00;4973708;28;20404;-69
2022/02/01 07:00:07;;;;;;;2.47;1.13;;;;;;;2.38;83.00;99294.91;4973824;28;20041;-69
2022/02/01 07:02:33;;;;;;;1.27;1.27;;;;;;;2.40;82.75;99300.91;4972866;28;20110;-69
2022/02/01 07:04:59;;;;;;;1.48;0.68;;;;;;;2.43;83.35;99313.78;4965733;28;20125;-69
2022/02/01 07:07:24;;;;;;;0.60;0.60;;;;;;;2.37;83.34;99317.06;4973634;28;20061;-69
2022/02/01 07:09:49;;;;;;;0.68;0.68;;;;;;;2.43;82.37;99326.56;4973767;28;20030;-69
2022/02/01 07:12:15;;;;;;;0.70;0.70;;;;;;;2.53;82.88;99338.72;4973565;28;20082;-69
2022/02/01 07:14:40;;;;;;;0.50;0.50;;;;;;;2.45;82.57;99345.34;4973712;28;20027;-69
2022/02/01 07:17:05;;;;;;;2.17;1.92;;;;;;;2.44;82.08;99347.03;4973431;28;20041;-68
2022/02/01 07:19:31;;;;;;;0.98;0.98;;;;;;;2.40;82.16;99336.72;4972375;28;20031;-69
2022/02/01 07:21:56;;;;;;;2.80;1.50;;;;;;;2.34;82.94;99354.47;4972303;28;20027;-69
2022/02/01 07:24:28;;;;;;;0.65;0.65;;;;;;;2.56;83.01;99349.00;4973727;28;20046;-69
2022/02/01 07:26:57;;;;;;;0.70;0.70;;;;;;;2.47;82.16;99338.59;4973232;28;20030;-69
2022/02/01 07:29:26;;;;;;;1.00;1.00;;;;;;;2.48;82.73;99340.31;4973407;28;20058;-69
2022/02/01 07:31:52;;;;;;;0.70;0.70;;;;;;;2.54;82.57;99343.00;4972354;28;20034;-69
2022/02/01 07:34:17;;;;;;;1.52;0.85;;;;;;;2.53;81.44;99337.03;4965370;28;20054;-69
2022/02/01 07:36:43;;;;;;;1.20;1.20;;;;;;;2.50;82.70;99343.75;4973294;28;20026;-69
2022/02/01 07:39:09;;;;;;;1.00;0.98;;;;;;;2.49;81.28;99336.94;4972013;28;20029;-69
2022/02/01 07:41:34;;;;;;;0.50;0.50;;;;;;;2.41;81.90;99328.19;4973277;28;20468;-69
2022/02/01 07:44:00;;;;;;;0.50;0.50;;;;;;;2.50;81.92;99333.53;4973269;28;20045;-69
2022/02/01 07:46:26;;;;;;;0.60;0.60;;;;;;;2.57;79.90;99320.06;4973147;28;20099;-69
2022/02/01 07:48:51;;;;;;;1.77;1.70;;;;;;;2.67;80.59;99327.13;4973171;28;20023;-69
2022/02/01 07:51:16;;;;;;;0.75;0.75;;;;;;;2.69;79.44;99328.00;4973154;28;20019;-69
2022/02/01 07:53:42;;;;;;;1.25;1.25;;;;;;;2.84;80.55;99325.78;4972620;28;20541;-69
2022/02/01 07:56:07;;;;;;;1.45;1.45;;;;;;;2.73;77.79;99326.38;4972993;28;20361;-69
2022/02/01 07:58:33;;;;;;;1.02;1.02;;;;;;;2.70;75.75;99327.16;4973169;28;20029;-69
2022/02/01 08:00:58;;;;;;;0.60;0.60;;;;;;;2.83;76.43;99338.56;4973087;28;20403;-69
2022/02/01 08:03:23;;;;;;;1.38;1.38;;;;;;;2.91;76.25;99333.59;4966762;28;20374;-69
2022/02/01 08:05:49;;;;;;;0.88;0.88;;;;;;;3.01;76.65;99335.53;4970327;28;20046;-69
2022/02/01 08:08:14;;;;;;;0.70;0.70;;;;;;;3.02;78.36;99325.31;4973018;28;20058;-69
2022/02/01 08:10:52;;;;;;;0.60;0.60;;;;;;;3.27;76.21;99331.78;4972715;28;20092;-69
2022/02/01 08:21:24;;;;;;;1.95;0.70;;;;;;;3.18;72.86;99323.91;4973226;28;20054;-69
2022/02/01 08:23:49;;;;;;;0.98;0.98;;;;;;;3.21;74.69;99321.44;4972954;28;20473;-69
2022/02/01 08:26:15;;;;;;;0.52;0.52;;;;;;;3.33;75.50;99325.91;4972799;28;20082;-69
2022/02/01 08:28:40;;;;;;;0.93;0.93;;;;;;;3.48;74.80;99327.91;4973083;28;20400;-69
2022/02/01 08:31:08;;;;;;;0.60;0.60;;;;;;;3.52;72.54;99332.28;4972593;28;20503;-69
2022/02/01 08:33:33;;;;;;;0.50;0.50;;;;;;;3.51;73.37;99330.56;4965039;28;20023;-69
2022/02/01 08:35:59;;;;;;;26.00;1.40;;;;;;;3.64;72.76;99337.63;4971276;28;20027;-69
2022/02/01 08:38:24;;;;;;;0.57;0.57;;;;;;;3.75;72.51;99341.25;4973014;28;20062;-69
2022/02/01 08:40:49;;;;;;;0.60;0.60;;;;;;;3.97;72.52;99336.53;4972697;28;20030;-69
2022/02/01 08:43:16;;;;;;;0.60;0.60;;;;;;;4.00;72.35;99346.81;4972836;28;20367;-69
2022/02/01 08:45:43;;;;;;;0.55;0.55;;;;;;;3.92;72.22;99359.50;4972544;28;20399;-69
2022/02/01 08:48:08;;;;;;;0.70;0.70;;;;;;;3.76;72.20;99348.09;4972671;28;20027;-69
2022/02/01 08:50:35;;;;;;;0.55;0.55;;;;;;;3.70;72.15;99355.69;4972673;28;20165;-69
2022/02/01 08:53:14;;;;;;;6.25;0.73;;;;;;;3.54;71.98;99340.88;4972771;28;20023;-69
2022/02/01 08:55:50;;;;;;;3.15;1.60;;;;;;;3.64;73.90;99342.75;4972698;28;20035;-69
2022/02/01 08:58:16;;;;;;;1.95;1.85;;;;;;;3.55;72.40;99355.41;4972607;28;20103;-69
2022/02/01 09:00:42;;;;;;;0.50;0.50;;;;;;;3.36;72.21;99351.59;4972381;28;20041;-69
2022/02/01 09:03:07;;;;;;;0.60;0.60;;;;;;;3.19;73.00;99361.53;4968319;28;20023;-69
2022/02/01 09:05:33;;;;;;;0.50;0.50;;;;;;;3.16;74.23;99348.66;4967861;28;20373;-69
2022/02/01 09:08:03;;;;;;;2.60;0.95;;;;;;;3.15;74.37;99339.25;4975612;28;20022;-69
2022/02/01 09:10:30;;;;;;;0.60;0.60;;;;;;;3.16;73.44;99348.66;4975923;28;20022;-69
2022/02/01 09:12:55;;;;;;;0.65;0.65;;;;;;;3.04;73.67;99343.25;4975713;28;20037;-69
2022/02/01 09:15:21;;;;;;;2.58;1.35;;;;;;;3.19;74.16;99343.59;4976129;28;20101;-69
2022/02/01 09:17:47;;;;;;;0.70;0.70;;;;;;;3.25;73.93;99343.72;4975660;28;20027;-69
2022/02/01 09:20:12;;;;;;;1.05;1.05;;;;;;;3.42;74.17;99335.50;4975669;28;20074;-69
2022/02/01 09:22:38;;;;;;;3.67;2.33;;;;;;;3.38;74.32;99338.81;4975626;28;20022;-69
2022/02/01 09:25:04;;;;;;;0.50;0.50;;;;;;;3.37;73.69;99342.22;4975799;28;20106;-69
2022/02/01 09:27:29;;;;;;;0.70;0.70;;;;;;;3.42;73.52;99332.94;4975300;28;20472;-69
2022/02/01 09:29:56;;;;;;;1.30;1.00;;;;;;;3.66;73.46;99327.41;4975493;28;20038;-69
2022/02/01 09:32:23;;;;;;;1.00;1.00;;;;;;;3.56;73.08;99349.44;4974397;28;20034;-69
2022/02/01 09:34:48;;;;;;;0.95;0.93;;;;;;;3.38;73.54;99343.94;4967453;28;20069;-69
2022/02/01 09:37:14;;;;;;;5.00;1.30;;;;;;;3.39;73.69;99325.22;4975250;28;20445;-69
2022/02/01 09:39:39;;;;;;;0.50;0.50;;;;;;;3.34;74.82;99320.84;4975465;28;20392;-69
2022/02/01 09:42:05;;;;;;;1.50;1.40;;;;;;;3.44;75.18;99323.59;4975387;28;20077;-69
2022/02/01 09:44:30;;;;;;;0.55;0.55;;;;;;;3.35;76.00;99314.03;4975199;28;20062;-69
2022/02/01 09:46:56;;;;;;;0.60;0.60;;;;;;;3.30;75.86;99300.28;4975250;28;20058;-69
2022/02/01 09:49:24;;;;;;;0.75;0.75;;;;;;;3.33;76.07;99305.44;4975289;28;20057;-69
2022/02/01 09:51:51;;;;;;;7.30;0.95;;;;;;;3.32;75.82;99301.16;4975462;28;20487;-69
2022/02/01 09:54:21;;;;;;;0.70;0.70;;;;;;;3.47;75.01;99298.88;4975185;28;20034;-69
2022/02/01 09:56:50;;;;;;;1.38;1.02;;;;;;;3.68;74.74;99307.81;4974968;28;20034;-69
2022/02/01 09:59:21;;;;;;;11.30;1.02;;;;;;;3.87;74.57;99294.50;4974913;28;20098;-69
2022/02/01 10:01:54;;;;;;;1.17;1.17;;;;;;;3.92;74.04;99307.38;4974254;28;20377;-69
2022/02/01 10:04:25;;;;;;;0.50;0.50;;;;;;;4.12;73.77;99306.00;4966939;28;20058;-69
2022/02/01 10:06:50;;;;;;;5.15;1.40;;;;;;;4.49;73.17;99306.56;4974854;28;20077;-69
2022/02/01 10:09:16;;;;;;;1.45;1.30;;;;;;;4.64;72.71;99307.66;4974626;28;20026;-69
2022/02/01 10:11:44;;;;;;;1.33;0.70;;;;;;;4.70;71.19;99312.03;4974878;28;20106;-69
2022/02/01 10:14:19;;;;;;;3.50;1.33;;;;;;;4.60;70.85;99315.31;4974946;28;20037;-69
2022/02/01 10:16:50;;;;;;;1.05;1.05;;;;;;;4.61;69.54;99301.63;4974374;28;20084;-68
2022/02/01 10:19:17;;;;;;;1.58;0.98;;;;;;;4.70;69.82;99290.63;4974671;28;20031;-69
2022/02/01 10:21:50;;;;;;;0.50;0.50;;;;;;;4.77;68.93;99298.41;4974579;28;20070;-69
2022/02/01 10:24:28;;;;;;;0.50;0.50;;;;;;;4.87;68.19;99292.56;4974552;28;20018;-69
2022/02/01 10:27:06;;;;;;;0.80;0.80;;;;;;;5.29;67.04;99275.97;4974552;28;20026;-69
2022/02/01 10:29:34;;;;;;;6.45;0.93;;;;;;;5.98;64.37;99281.81;4974405;28;20034;-69
2022/02/01 10:32:00;;;;;;;0.50;0.50;;;;;;;6.53;61.32;99260.78;4973305;28;20481;-69
2022/02/01 10:36:53;;;;;;;0.88;0.88;;;;;;;8.37;55.59;99270.69;4974515;28;20031;-69
2022/02/01 10:39:20;;;;;;;1.00;0.45;;;;;;;8.42;55.67;99263.81;4974351;28;20043;-69
2022/02/01 10:42:02;;;;;;;0.40;0.40;;;;;;;7.71;55.87;99269.78;4974344;28;20019;-69
2022/02/01 10:44:41;;;;;;;0.50;0.50;;;;;;;6.69;60.41;99278.03;4974263;28;20441;-69
2022/02/01 10:47:08;;;;;;;0.50;0.50;;;;;;;6.26;61.38;99287.19;4974038;28;20030;-69
2022/02/01 10:49:35;;;;;;;0.47;0.47;;;;;;;5.38;64.29;99282.91;4974227;28;20081;-69
2022/02/01 10:52:03;;;;;;;2.03;1.92;;;;;;;5.16;64.83;99276.66;4974069;28;20027;-69
2022/02/01 10:54:30;;;;;;;0.60;0.60;;;;;;;4.64;66.53;99278.56;4974200;28;20022;-69
2022/02/01 10:56:55;;;;;;;0.57;0.57;;;;;;;4.63;66.61;99280.25;4973822;28;20065;-69
2022/02/01 10:59:23;;;;;;;0.82;0.82;;;;;;;4.53;67.89;99273.28;4973880;28;20042;-69
2022/02/01 11:01:48;;;;;;;0.65;0.65;;;;;;;4.43;67.60;99273.13;4973055;28;20396;-69
2022/02/01 11:04:19;;;;;;;0.85;0.85;;;;;;;4.28;68.79;99264.38;4965913;28;20033;-69
2022/02/01 11:06:44;;;;;;;0.95;0.70;;;;;;;4.24;69.68;99239.50;4973805;28;20480;-69
2022/02/01 11:09:10;;;;;;;4.25;1.52;;;;;;;4.08;69.54;99240.13;4973802;28;20081;-69
2022/02/01 11:11:35;;;;;;;0.50;0.50;;;;;;;4.27;69.12;99221.63;4973618;28;20109;-69
2022/02/01 11:14:00;;;;;;;1.77;1.67;;;;;;;4.22;70.57;99209.56;4973838;28;20491;-69
2022/02/01 11:16:27;;;;;;;3.35;1.52;;;;;;;4.11;69.88;99211.97;4973501;28;20035;-68
2022/02/01 11:19:00;;;;;;;0.95;0.90;;;;;;;4.17;70.43;99200.94;4973663;28;20434;-69
2022/02/01 11:21:27;;;;;;;0.50;0.50;;;;;;;4.02;70.27;99201.59;4973651;28;20023;-69
2022/02/01 11:26:36;;;;;;;1.13;1.13;;;;;;;4.00;70.75;99175.03;4973371;28;20390;-69
2022/02/01 11:29:50;;;;;;;0.60;0.60;;;;;;;4.04;71.74;99158.88;4972839;28;20046;-69
2022/02/01 11:32:19;;;;;;;0.95;0.95;;;;;;;4.01;71.47;99159.72;4972298;28;20424;-69
2022/02/01 11:34:45;;;;;;;0.55;0.55;;;;;;;3.94;71.30;99157.03;4965215;28;20042;-69
2022/02/01 11:37:15;;;;;;;0.82;0.82;;;;;;;3.93;70.64;99139.94;4973249;28;20022;-69
2022/02/01 11:39:49;;;;;;;1.63;1.35;;;;;;;4.03;71.60;99141.78;4973328;28;20498;-69
2022/02/01 11:42:16;;;;;;;0.75;0.75;;;;;;;3.88;69.65;99146.69;4973390;28;20077;-69
2022/02/01 11:44:42;;;;;;;0.60;0.60;;;;;;;3.98;70.72;99148.53;4973341;28;20038;-69
2022/02/01 11:47:12;;;;;;;0.88;0.88;;;;;;;3.79;69.72;99138.00;4973022;28;20031;-69
2022/02/01 11:49:55;;;;;;;0.57;0.57;;;;;;;3.85;71.46;99134.69;4973364;28;20027;-69
2022/02/01 11:52:21;;;;;;;0.60;0.60;;;;;;;3.90;72.63;99137.31;4973324;28;20026;-69
2022/02/01 11:54:48;;;;;;;3.13;0.73;;;;;;;4.06;71.21;99136.66;4973179;28;20034;-68
2022/02/01 11:57:15;;;;;;;0.50;0.50;;;;;;;4.06;71.13;99141.78;4973076;28;20121;-69
2022/02/01 12:00:02;;;;;;;1.08;1.00;;;;;;;4.02;70.69;99147.75;4972921;28;20065;-69
2022/02/01 12:02:37;;;;;;;0.60;0.60;;;;;;;3.91;72.06;99131.34;4972206;28;20027;-69
2022/02/01 12:05:11;;;;;;;2.50;1.25;;;;;;;3.66;72.18;99118.16;4965083;28;20373;-69
2022/02/01 12:07:45;;;;;;;1.35;1.25;;;;;;;3.69;70.90;99100.28;4973015;28;20480;-69
2022/02/01 12:10:16;;;;;;;1.63;1.52;;;;;;;3.80;71.16;99103.84;4972916;28;20422;-69
2022/02/01 12:12:43;;;;;;;0.50;0.50;;;;;;;3.96;71.44;99098.94;4973182;28;20023;-69
2022/02/01 12:15:09;;;;;;;0.90;0.90;;;;;;;4.00;71.29;99081.06;4972990;28;20046;-69
2022/02/01 12:17:40;;;;;;;4.03;2.65;;;;;;;4.11;70.97;99078.66;4972882;28;20077;-69
2022/02/01 12:20:09;;;;;;;0.60;0.60;;;;;;;3.94;70.00;99075.00;4972846;28;20041;-69
2022/02/01 12:23:08;;;;;;;0.60;0.60;;;;;;;3.66;69.82;99074.59;4972808;28;20031;-69
2022/02/01 12:25:33;;;;;;;0.50;0.50;;;;;;;3.84;71.65;99085.13;4973042;28;20269;-69
2022/02/01 12:27:59;;;;;;;0.60;0.60;;;;;;;3.66;71.38;99076.31;4972948;28;20209;-69
2022/02/01 12:30:24;;;;;;;0.63;0.63;;;;;;;3.65;73.25;99078.00;4972543;28;20480;-69
2022/02/01 12:32:55;;;;;;;0.70;0.70;;;;;;;3.61;74.56;99071.13;4970859;28;20027;-69
2022/02/01 12:35:36;;;;;;;0.57;0.57;;;;;;;3.55;74.25;99051.41;4966659;28;20109;-69
2022/02/01 12:38:08;;;;;;;0.52;0.52;;;;;;;3.50;73.49;99049.63;4972847;28;20031;-69
2022/02/01 12:40:37;;;;;;;0.60;0.60;;;;;;;3.44;74.67;99046.97;4974071;28;20023;-69
2022/02/01 12:43:09;;;;;;;0.50;0.50;;;;;;;3.44;74.44;99031.59;4976650;28;20453;-69
2022/02/01 12:48:09;;;;;;;0.77;0.77;;;;;;;3.46;73.51;99019.66;4976456;28;20050;-69
2022/02/01 12:50:35;;;;;;;4.32;1.23;;;;;;;3.34;73.57;99020.38;4976411;28;20050;-69
2022/02/01 12:53:03;;;;;;;0.50;0.50;;;;;;;3.42;74.42;99011.06;4976336;28;20476;-69
2022/02/01 12:55:28;;;;;;;1.13;1.08;;;;;;;3.40;72.82;99009.34;4976241;28;20436;-69
2022/02/01 12:57:55;;;;;;;1.25;1.25;;;;;;;3.45;74.67;98998.31;4976184;28;20122;-69
2022/02/01 13:00:23;;;;;;;0.77;0.77;;;;;;;3.28;73.66;98999.78;4976186;28;20054;-69
2022/02/01 13:02:54;;;;;;;0.80;0.80;;;;;;;3.33;74.48;98991.31;4974391;28;20027;-69
2022/02/01 13:05:20;;;;;;;0.80;0.80;;;;;;;3.45;74.76;98992.34;4969730;28;20387;-69
2022/02/01 13:21:04;;;;;;;4.05;1.10;;;;;;;3.14;72.89;98930.44;4975793;28;20027;-69
2022/02/01 13:23:42;;;;;;;0.52;0.52;;;;;;;3.19;73.03;98918.59;4950167;28;20452;-69
2022/02/01 13:26:10;;;;;;;0.60;0.60;;;;;;;3.17;73.04;98917.69;4975581;28;20484;-69
2022/02/01 13:28:35;;;;;;;0.68;0.68;;;;;;;3.23;73.86;98915.22;4975636;28;20023;-69
2022/02/01 13:31:07;;;;;;;0.90;0.90;;;;;;;3.20;74.68;98915.19;4975549;28;20053;-69
2022/02/01 13:33:32;;;;;;;0.80;0.80;;;;;;;3.16;74.89;98925.38;4967832;28;20067;-69
2022/02/01 13:35:58;;;;;;;0.80;0.80;;;;;;;3.16;74.58;98910.88;4973876;28;20050;-69
2022/02/01 13:38:26;;;;;;;0.55;0.55;;;;;;;3.14;75.13;98920.19;4975506;28;20038;-69
2022/02/01 13:40:53;;;;;;;0.88;0.88;;;;;;;3.13;75.25;98923.59;4975502;28;20300;-69
2022/02/01 13:43:26;;;;;;;0.50;0.50;;;;;;;3.10;74.85;98898.00;4975264;28;20031;-69
2022/02/01 13:45:54;;;;;;;0.68;0.68;;;;;;;3.02;75.25;98899.56;4975107;28;20463;-69
2022/02/01 13:48:29;;;;;;;0.50;0.50;;;;;;;3.01;75.58;98902.97;4975414;28;20033;-69
2022/02/01 13:51:03;;;;;;;0.70;0.70;;;;;;;3.03;76.19;98896.16;4975035;28;20497;-69
2022/02/01 13:53:28;;;;;;;2.60;0.70;;;;;;;3.04;76.45;98892.75;4974396;28;20037;-69
2022/02/01 13:55:59;;;;;;;0.60;0.60;;;;;;;3.01;75.00;98888.47;4975067;28;20027;-69
2022/02/01 13:58:25;;;;;;;5.28;1.58;;;;;;;3.05;75.43;98894.50;4975002;28;20031;-69
2022/02/01 14:00:54;;;;;;;0.80;0.80;;;;;;;3.05;75.44;98897.06;4974971;28;20100;-69
2022/02/01 14:03:44;;;;;;;0.50;0.50;;;;;;;3.12;75.14;98891.19;4969302;28;20102;-69
2022/02/01 14:16:31;;;;;;;0.75;0.75;;;;;;;2.88;78.52;98878.03;4949270;29;20024;-69
2022/02/01 14:25:31;;;;;;;0.50;0.50;;;;;;;2.79;79.44;98861.72;4936153;29;20047;-69
2022/02/01 14:27:33;;;;;;;0.63;0.63;;;;;;;2.88;80.10;98855.00;4935901;29;20031;-69
2022/02/01 14:34:49;;;;;;;1.00;1.00;;;;;;;2.75;79.85;98824.13;4966304;28;20112;-69
2022/02/01 14:37:20;;;;;;;5.15;1.00;;;;;;;2.73;79.93;98810.47;4974265;28;20454;-69
2022/02/01 14:45:11;;;;;;;0.93;0.93;;;;;;;2.73;79.83;98795.13;4974229;28;20041;-69
2022/02/01 14:47:36;;;;;;;3.92;1.23;;;;;;;2.66;79.71;98808.69;4974088;28;20039;-69
2022/02/01 14:50:04;;;;;;;0.60;0.60;;;;;;;2.70;80.31;98800.19;4973985;28;20029;-68
2022/02/01 14:52:29;;;;;;;5.18;1.20;;;;;;;2.69;79.84;98792.50;4974024;28;20034;-69
2022/02/01 14:55:00;;;;;;;0.73;0.73;;;;;;;2.66;80.35;98790.78;4974025;28;20034;-69
2022/02/01 15:13:42;;;;;;;0.50;0.50;;;;;;;2.33;87.23;98782.63;4974300;28;20030;-69
2022/02/01 15:16:09;;;;;;;7.32;3.20;;;;;;;2.22;87.73;98770.50;4973423;28;20480;-69
2022/02/01 15:18:35;;;;;;;0.50;0.50;;;;;;;2.15;88.40;98778.94;4973729;28;20027;-69
2022/02/01 15:21:00;;;;;;;0.82;0.82;;;;;;;2.14;89.73;98776.38;4973572;28;20089;-69
2022/02/01 15:23:25;;;;;;;4.78;2.33;;;;;;;2.04;90.38;98780.47;4973526;28;20030;-68
2022/02/01 15:25:51;;;;;;;0.65;0.65;;;;;;;2.17;91.58;98787.47;4973297;28;20031;-69
2022/02/01 15:28:17;;;;;;;0.93;0.93;;;;;;;2.03;91.35;98771.06;4973676;28;20026;-68
2022/02/01 15:30:44;;;;;;;0.50;0.50;;;;;;;2.03;92.41;98783.84;4973249;28;20034;-69
2022/02/01 15:33:13;;;;;;;1.35;1.35;;;;;;;1.98;90.45;98778.69;4968749;28;20078;-69
2022/02/01 15:35:39;;;;;;;2.17;0.93;;;;;;;1.94;91.94;98788.84;4969395;28;20027;-69
2022/02/01 15:38:08;;;;;;;0.60;0.60;;;;;;;1.92;92.91;98775.16;4973153;28;20026;-69
2022/02/01 15:59:33;;;;;;;0.63;0.63;;;;;;;2.00;92.35;98751.47;4973041;28;20058;-69
2022/02/01 16:02:06;;;;;;;0.50;0.50;;;;;;;2.11;91.77;98720.94;4972241;28;20031;-69
2022/02/01 16:04:32;;;;;;;0.70;0.70;;;;;;;1.92;91.33;98703.63;4965212;28;20026;-69
2022/02/01 16:07:01;;;;;;;0.60;0.60;;;;;;;1.94;90.91;98709.63;4972933;28;20396;-69
2022/02/01 16:12:00;;;;;;;0.80;0.80;;;;;;;2.10;93.97;98703.06;4973300;28;20096;-69
2022/02/01 16:14:26;;;;;;;1.77;1.60;;;;;;;1.97;93.53;98691.78;4972848;28;20388;-69
2022/02/01 16:16:51;;;;;;;0.80;0.80;;;;;;;1.87;93.06;98692.47;4976289;28;20038;-69
2022/02/01 16:19:17;;;;;;;0.57;0.57;;;;;;;1.92;93.13;98693.41;4976839;28;20097;-69
2022/02/01 16:21:42;;;;;;;0.60;0.60;;;;;;;1.94;92.88;98671.31;4977404;28;20026;-69
2022/02/01 16:24:08;;;;;;;0.50;0.50;;;;;;;2.05;92.60;98675.72;4976644;28;20373;-69
2022/02/01 16:26:33;;;;;;;0.70;0.70;;;;;;;2.10;91.89;98660.47;4976654;28;20468;-69
2022/02/01 16:28:59;;;;;;;1.13;1.13;;;;;;;2.21;91.42;98666.56;4976573;28;20039;-70
2022/02/01 16:31:27;;;;;;;0.70;0.70;;;;;;;2.31;89.27;98667.53;4976635;28;20031;-69
2022/02/01 16:33:54;;;;;;;0.70;0.70;;;;;;;2.24;88.40;98660.66;4967463;28;20106;-69
2022/02/01 16:36:21;;;;;;;1.20;1.13;;;;;;;2.23;87.59;98657.25;4976577;28;20165;-69
2022/02/01 16:38:46;;;;;;;1.05;1.05;;;;;;;2.33;88.10;98650.56;4976534;28;20436;-69
2022/02/01 16:41:12;;;;;;;1.10;1.10;;;;;;;2.50;88.35;98659.25;4976474;28;20030;-69
2022/02/01 16:43:41;;;;;;;0.55;0.55;;;;;;;2.44;87.23;98645.56;4975263;28;20019;-69
2022/02/01 16:46:07;;;;;;;0.70;0.70;;;;;;;2.41;87.01;98643.81;4976365;28;20031;-69
2022/02/01 16:48:33;;;;;;;0.70;0.70;;;;;;;2.50;84.49;98641.38;4976426;28;20077;-69
2022/02/01 16:50:58;;;;;;;0.80;0.70;;;;;;;2.51;87.31;98639.66;4976163;28;20037;-69
2022/02/01 16:53:32;;;;;;;0.77;0.77;;;;;;;2.56;86.10;98638.03;4976251;28;20031;-69
2022/02/01 16:58:26;;;;;;;0.88;0.88;;;;;;;2.64;85.90;98631.31;4976278;28;20027;-69
2022/02/01 17:00:54;;;;;;;0.88;0.88;;;;;;;2.72;86.28;98629.69;4976144;28;20050;-69
2022/02/01 17:03:20;;;;;;;1.13;1.13;;;;;;;2.71;84.94;98616.91;4970341;28;20016;-69
2022/02/01 17:05:47;;;;;;;0.60;0.60;;;;;;;2.81;86.28;98628.94;4972648;28;20113;-69
2022/02/01 17:08:14;;;;;;;0.60;0.60;;;;;;;2.92;85.86;98632.47;4976103;28;20475;-69
2022/02/01 17:10:43;;;;;;;0.50;0.50;;;;;;;2.82;85.47;98621.28;4975944;28;20038;-69
2022/02/01 17:14:02;;;;;;;0.50;0.50;;;;;;;2.77;84.06;98638.28;4976024;28;20102;-69
2022/02/01 17:16:10;;;;;;;0.70;0.70;;;;;;;2.94;85.68;98645.25;4965206;28;20422;-69
2022/02/01 17:23:46;;;;;;;0.65;0.65;;;;;;;2.89;85.81;98641.78;4976124;28;20089;-69
2022/02/01 17:26:12;;;;;;;0.75;0.75;;;;;;;3.15;85.59;98649.75;4975108;28;20113;-69
2022/02/01 17:28:38;;;;;;;0.85;0.85;;;;;;;2.94;85.83;98656.34;4974936;28;20108;-69
2022/02/01 17:31:04;;;;;;;0.70;0.70;;;;;;;2.95;86.36;98647.84;4975876;28;20035;-75
2022/02/01 17:33:29;;;;;;;0.98;0.95;;;;;;;2.99;86.73;98644.47;4968233;28;20404;-75
2022/02/01 17:35:54;;;;;;;0.60;0.60;;;;;;;3.01;87.86;98649.63;4973307;28;20105;-76
2022/02/01 17:38:22;;;;;;;0.50;0.50;;;;;;;2.92;89.67;98640.13;4975546;28;20066;-77
2022/02/01 17:40:47;;;;;;;1.75;1.08;;;;;;;2.97;90.93;98651.28;4975502;28;20019;-74
2022/02/01 17:43:14;;;;;;;0.65;0.65;;;;;;;2.81;91.56;98641.72;4975425;28;20531;-75
2022/02/01 17:45:41;;;;;;;0.50;0.50;;;;;;;2.78;92.68;98647.66;4975442;28;20023;-74
2022/02/01 17:48:07;;;;;;;0.60;0.60;;;;;;;2.86;93.32;98668.22;4975272;28;20023;-74
2022/02/01 17:50:44;;;;;;;0.50;0.50;;;;;;;2.90;93.96;98659.75;4975479;28;20027;-75
2022/02/01 17:56:17;;;;;;;0.65;0.65;;;;;;;2.70;96.41;98626.25;4904535;29;20546;-75
2022/02/01 17:58:43;;;;;;;0.50;0.50;;;;;;;2.66;96.54;98627.06;4915376;29;20045;-75
2022/02/01 18:01:09;;;;;;;0.60;0.60;;;;;;;2.61;97.29;98620.16;4944401;28;20454;-74
2022/02/01 18:03:34;;;;;;;0.50;0.50;;;;;;;2.71;98.13;98633.09;4960499;28;20110;-74
2022/02/01 18:06:01;;;;;;;1.85;0.85;;;;;;;2.62;98.74;98627.03;4955442;28;20033;-75
2022/02/01 18:08:27;;;;;;;0.65;0.65;;;;;;;2.69;98.86;98621.97;4954310;29;20054;-74
2022/02/01 18:10:54;;;;;;;0.50;0.50;;;;;;;2.73;98.91;98616.06;4955771;28;20034;-75
2022/02/01 18:13:38;;;;;;;0.60;0.60;;;;;;;2.84;97.88;98617.00;4955550;28;20102;-75
2022/02/01 18:16:04;;;;;;;0.60;0.60;;;;;;;2.80;97.69;98602.50;4955539;28;20050;-75